Latest Weather Observations for Croker Island Airport

IDD60801

Issued at 10:51 am CST Sunday 5 July 2020 (issued every 10 minutes, with the page automatically refreshed every 10 minutes)

About weather observations | Map of weather stations | Latest weather observations for NT | Other Formats
Station Details ID: 014308 Name: CROKER ISLAND AIRPORT Lat: -11.16 Lon: 132.48 Height: 9.2 m
Data from the previous 72 hours. | See also: Recent months at Croker Island Airport
Date/Time
CST
Temp
°C
App
Temp
°C
Dew
Point
°C
Rel
Hum
%
Delta-T
°C
Wind Press
QNH
hPa
Press
MSL
hPa
Rain since
9am
mm
Dir  Spd
km/h
Gust
km/h
Spd
kts
Gust
kts
05/10:35am 26.5 22.1 15.2 49 6.8 ESE 32 52 17 28 1015.0 1014.9 0.0
05/10:30am 26.3 21.3 15.0 49 6.8 ESE 35 52 19 28 1014.9 1014.8 0.0
05/10:00am 26.1 21.7 14.2 48 7.1 ESE 30 50 16 27 1015.1 1015.0 0.0
05/09:30am 26.3 22.8 14.4 48 7.1 ESE 26 43 14 23 1015.0 1014.9 0.0
05/09:22am 25.9 21.5 14.1 48 7.0 ESE 30 50 16 27 1014.8 1014.7 0.0
05/09:00am 25.6 21.4 13.5 47 7.1 ESE 28 44 15 24 1015.1 1015.0 0.0
05/08:30am 25.1 20.6 12.7 46 7.2 ESE 28 46 15 25 1014.7 1014.6 0.0
05/08:00am 24.4 21.7 13.6 51 6.3 ESE 20 37 11 20 1014.6 1014.5 0.0
05/07:30am 23.7 21.2 13.6 53 5.9 ESE 19 32 10 17 1014.6 1014.5 0.0
05/07:00am 23.6 21.2 14.3 56 5.5 ESE 20 30 11 16 1014.2 1014.1 0.0
05/06:30am 23.6 20.7 14.0 55 5.6 ESE 22 37 12 20 1014.3 1014.2 0.0
05/06:00am 23.6 20.2 13.8 54 5.7 ESE 24 39 13 21 1014.1 1014.0 0.0
05/05:30am 23.0 20.8 14.8 60 4.9 ESE 20 30 11 16 1014.0 1013.9 0.0
05/05:00am 22.9 20.6 14.7 60 4.9 ESE 20 32 11 17 1014.0 1013.9 0.0
05/04:30am 23.3 19.7 14.3 57 5.3 ESE 26 41 14 22 1013.8 1013.7 0.0
05/04:00am 23.7 19.7 13.0 51 6.2 ESE 26 41 14 22 1014.2 1014.1 0.0
05/03:30am 23.6 21.1 13.5 53 5.9 ESE 19 32 10 17 1014.3 1014.2 0.0
05/03:00am 23.8 22.2 13.9 54 5.8 ESE 15 26 8 14 1014.7 1014.6 0.0
05/02:30am 23.7 22.4 14.7 57 5.3 ESE 15 22 8 12 1015.0 1014.9 0.0
05/02:00am 23.9 22.7 15.1 58 5.3 ESE 15 24 8 13 1015.2 1015.1 0.0
05/01:30am 24.1 23.8 16.4 62 4.7 SE 13 22 7 12 1015.3 1015.2 0.0
05/01:00am 24.8 23.3 16.2 58 5.3 ESE 19 30 10 16 1015.4 1015.3 0.0
05/12:30am 25.1 23.1 16.5 59 5.3 ESE 22 41 12 22 1015.6 1015.5 0.0
05/12:00am 25.5 23.5 16.4 57 5.6 ESE 22 33 12 18 1015.5 1015.4 0.0
 
Date/Time
CST
Temp
°C
App
Temp
°C
Dew
Point
°C
Rel
Hum
%
Delta-T
°C
Wind Press
QNH
hPa
Press
MSL
hPa
Rain since
9am
mm
Dir  Spd
km/h
Gust
km/h
Spd
kts
Gust
kts
04/11:30pm 25.9 24.6 17.3 59 5.4 ESE 20 32 11 17 1015.4 1015.3 0.0
04/11:00pm 26.4 25.2 17.5 58 5.6 ESE 20 39 11 21 1015.4 1015.3 0.0
04/10:30pm 26.2 26.6 19.8 68 4.1 E 17 24 9 13 1015.3 1015.2 0.0
04/10:00pm 26.2 26.6 19.8 68 4.2 E 17 24 9 13 1015.3 1015.2 0.0
04/09:30pm 26.4 27.3 20.0 68 4.2 E 15 26 8 14 1015.1 1015.0 0.0
04/09:00pm 26.3 27.5 20.6 71 3.7 E 15 24 8 13 1014.9 1014.8 0.0
04/08:30pm 26.3 27.5 20.6 71 3.7 E 15 24 8 13 1014.6 1014.5 0.0
04/08:00pm 26.1 27.3 20.7 72 3.5 E 15 22 8 12 1014.1 1014.0 0.0
04/07:30pm 26.2 27.3 20.5 71 3.7 E 15 24 8 13 1013.7 1013.6 0.0
04/07:00pm 26.2 27.1 20.1 69 4.0 E 15 26 8 14 1013.4 1013.3 0.0
04/06:30pm 26.3 27.1 19.9 68 4.2 E 15 22 8 12 1013.2 1013.1 0.0
04/06:00pm 26.9 26.8 19.5 64 4.8 E 19 30 10 16 1012.8 1012.7 0.0
04/05:30pm 27.5 27.1 18.8 59 5.6 E 19 30 10 16 1012.7 1012.6 0.0
04/05:00pm 28.6 27.9 18.7 55 6.4 E 20 35 11 19 1012.6 1012.5 0.0
04/04:30pm 28.7 27.5 18.5 54 6.5 E 22 35 12 19 1012.7 1012.6 0.0
04/04:00pm 29.3 28.6 18.7 52 6.8 E 20 35 11 19 1012.6 1012.5 0.0
04/03:30pm 29.4 26.6 17.2 47 7.7 E 28 39 15 21 1012.6 1012.5 0.0
04/03:00pm 30.1 26.8 16.1 42 8.7 E 28 46 15 25 1012.7 1012.6 0.0
04/02:30pm 30.0 25.9 14.9 39 9.2 ESE 30 50 16 27 1012.9 1012.8 0.0
04/02:00pm 30.0 25.8 15.7 42 8.8 ESE 32 52 17 28 1013.4 1013.3 0.0
04/01:30pm 29.9 25.3 15.2 41 9.0 ESE 33 54 18 29 1013.9 1013.8 0.0
04/01:00pm 29.9 25.5 15.2 41 9.0 ESE 32 52 17 28 1014.4 1014.3 0.0
04/12:30pm 29.7 26.4 16.1 43 8.4 ESE 28 46 15 25 1014.8 1014.7 0.0
04/12:24pm 29.8 26.4 15.9 43 8.6 ESE 28 46 15 25 1014.9 1014.8 0.0
04/12:00pm 29.9 26.7 16.3 43 8.5 ESE 28 43 15 23 1015.4 1015.3 0.0
04/11:46am 28.8 25.3 16.4 47 7.7 ESE 30 48 16 26 1015.6 1015.5 0.0
04/11:30am 28.6 25.1 16.5 48 7.5 ESE 30 48 16 26 1015.8 1015.7 0.0
04/11:17am 28.6 25.6 16.8 48 7.4 ESE 28 48 15 26 1015.8 1015.7 0.0
04/11:00am 28.4 25.8 17.9 53 6.7 ESE 28 46 15 25 1015.8 1015.7 0.0
04/10:30am 28.0 24.3 17.5 52 6.6 ESE 33 48 18 26 1015.9 1015.8 0.0
04/10:02am 27.7 24.6 17.5 53 6.4 ESE 30 50 16 27 1015.8 1015.7 0.0
04/10:00am 27.7 24.7 17.8 54 6.3 ESE 30 48 16 26 1015.8 1015.7 0.0
04/09:51am 27.3 24.8 18.0 56 5.9 ESE 28 48 15 26 1015.9 1015.8 0.0
04/09:30am 27.1 25.1 18.4 59 5.5 ESE 26 41 14 22 1015.9 1015.8 0.0
04/09:00am 26.6 25.3 18.2 60 5.3 ESE 22 35 12 19 1015.8 1015.7 0.0
04/08:30am 26.0 25.8 18.4 63 4.8 ESE 17 30 9 16 1015.4 1015.3 0.0
04/08:00am 25.1 25.2 18.3 66 4.3 ESE 15 28 8 15 1015.0 1014.9 0.0
04/07:30am 23.8 24.3 18.4 72 3.4 ESE 13 22 7 12 1014.6 1014.5 0.0
04/07:00am 24.0 24.0 18.2 70 3.6 ESE 15 26 8 14 1014.6 1014.5 0.0
04/06:30am 24.0 23.7 18.2 70 3.6 ESE 17 28 9 15 1014.7 1014.6 0.0
04/06:00am 24.1 23.8 18.3 70 3.7 ESE 17 26 9 14 1014.5 1014.4 0.0
04/05:30am 24.2 23.9 18.2 69 3.8 ESE 17 32 9 17 1014.4 1014.3 0.0
04/05:00am 24.4 23.6 18.1 68 4.0 ESE 19 32 10 17 1014.0 1013.9 0.0
04/04:30am 24.9 23.1 17.9 65 4.4 ESE 24 41 13 22 1014.2 1014.1 0.0
04/04:00am 24.6 24.0 18.5 69 3.9 ESE 19 26 10 14 1014.3 1014.2 0.0
04/03:30am 24.9 24.5 18.8 69 3.9 ESE 19 26 10 14 1014.6 1014.5 0.0
04/03:00am 25.1 24.7 18.8 68 4.0 ESE 19 28 10 15 1014.8 1014.7 0.0
04/02:30am 25.5 24.4 18.7 66 4.3 ESE 22 37 12 20 1015.1 1015.0 0.0
04/02:00am 25.7 24.6 18.6 65 4.5 ESE 22 39 12 21 1015.3 1015.2 0.0
04/01:30am 26.0 24.4 18.4 63 4.8 E 24 35 13 19 1015.8 1015.7 0.0
04/01:00am 26.0 25.5 19.2 66 4.4 ESE 20 32 11 17 1016.0 1015.9 0.0
04/12:30am 25.7 26.9 21.4 77 2.8 ESE 17 32 9 17 1016.0 1015.9 0.0
04/12:00am 25.6 27.8 21.9 80 2.5 ESE 13 19 7 10 1016.1 1016.0 0.0
 
Date/Time
CST
Temp
°C
App
Temp
°C
Dew
Point
°C
Rel
Hum
%
Delta-T
°C
Wind Press
QNH
hPa
Press
MSL
hPa
Rain since
9am
mm
Dir  Spd
km/h
Gust
km/h
Spd
kts
Gust
kts
03/11:30pm 25.7 27.9 21.8 79 2.6 E 13 26 7 14 1016.1 1016.0 0.0
03/11:00pm 25.9 27.0 21.3 76 3.0 E 17 26 9 14 1015.9 1015.8 0.0
03/10:30pm 26.2 27.3 21.2 74 3.3 E 17 26 9 14 1015.6 1015.5 0.0
03/10:00pm 26.6 28.0 21.1 72 3.6 E 15 28 8 15 1015.3 1015.2 0.0
03/09:30pm 26.7 28.4 21.0 71 3.8 E 13 22 7 12 1015.2 1015.1 0.0
03/09:00pm 26.6 28.2 21.4 73 3.5 ESE 15 20 8 11 1015.0 1014.9 0.0
03/08:30pm 26.3 28.2 21.3 74 3.3 ESE 13 20 7 11 1014.8 1014.7 0.0
03/08:00pm 25.8 28.3 21.7 78 2.7 ESE 11 17 6 9 1014.5 1014.4 0.0
03/07:30pm 26.0 27.8 21.9 78 2.7 E 15 24 8 13 1014.4 1014.3 0.0
03/07:00pm 25.9 27.7 21.8 78 2.7 E 15 24 8 13 1013.8 1013.7 0.0
03/06:30pm 26.1 28.0 21.3 75 3.2 E 13 22 7 12 1013.4 1013.3 0.0
03/06:00pm 27.1 27.9 20.7 68 4.2 E 17 26 9 14 1013.3 1013.2 0.0
03/05:30pm 27.8 27.6 20.6 65 4.7 E 22 30 12 16 1013.1 1013.0 0.0
03/05:00pm 28.9 29.4 20.9 62 5.3 ESE 19 32 10 17 1013.0 1012.9 0.0
03/04:30pm 28.5 27.0 20.2 60 5.5 E 28 43 15 23 1012.9 1012.8 0.0
03/04:00pm 29.0 27.4 20.7 61 5.5 E 30 44 16 24 1012.9 1012.8 0.0
03/03:36pm 28.9 27.7 20.9 62 5.3 ESE 28 48 15 26 1013.0 1012.9 0.0
03/03:30pm 29.3 29.1 21.3 62 5.3 ESE 24 43 13 23 1013.0 1012.9 0.0
03/03:00pm 29.6 28.6 20.5 58 6.0 E 26 41 14 22 1013.1 1013.0 0.0
03/02:32pm 29.0 27.3 19.9 58 6.0 ESE 28 46 15 25 1013.3 1013.2 0.0
03/02:30pm 29.5 28.6 20.6 58 5.9 ESE 26 41 14 22 1013.3 1013.2 0.0
03/02:00pm 29.9 28.5 20.5 57 6.2 ESE 28 39 15 21 1013.6 1013.5 0.0
03/01:30pm 29.3 28.4 20.7 59 5.7 ESE 26 39 14 21 1013.9 1013.8 0.0
03/01:00pm 29.3 29.5 21.3 62 5.3 ESE 22 35 12 19 1014.2 1014.1 0.0
03/12:30pm 29.3 29.7 21.8 64 5.0 E 22 35 12 19 1014.6 1014.5 0.0
03/12:00pm 28.6 28.0 20.6 62 5.3 ESE 24 41 13 22 1014.9 1014.8 0.0
03/11:30am 29.2 28.8 20.9 61 5.5 ESE 24 46 13 25 1015.1 1015.0 0.0
03/11:00am 29.3 29.2 20.7 59 5.7 E 22 35 12 19 1015.4 1015.3 0.0
03/10:30am 28.8 29.7 20.8 62 5.3 ESE 17 33 9 18 1015.5 1015.4 0.0
03/10:00am 27.3 27.8 20.1 64 4.7 ESE 17 26 9 14 1015.6 1015.5 0.0
03/09:30am 27.4 27.6 20.2 65 4.7 ESE 19 28 10 15 1015.5 1015.4 0.0
03/09:00am 26.9 27.9 20.3 67 4.3 ESE 15 26 8 14 1015.4 1015.3 0.0
03/08:30am 25.9 27.8 20.5 72 3.5 ESE 11 20 6 11 1015.0 1014.9 0.0
03/08:00am 24.6 26.4 20.3 77 2.8 SE 11 19 6 10 1014.5 1014.4 0.0
03/07:30am 23.2 25.7 20.2 83 1.9 SE 7 13 4 7 1014.1 1014.0 0.0
03/07:00am 23.0 25.4 20.0 83 1.9 ESE 7 11 4 6 1013.9 1013.8 0.0
03/06:30am 23.2 25.6 20.0 82 2.1 SE 7 11 4 6 1013.6 1013.5 0.0
03/06:00am 23.2 25.1 19.8 81 2.2 ESE 9 13 5 7 1013.4 1013.3 0.0
03/05:30am 23.6 25.2 19.9 80 2.4 ESE 11 17 6 9 1013.4 1013.3 0.0
03/05:00am 23.8 25.6 20.3 81 2.3 ESE 11 17 6 9 1013.4 1013.3 0.0
03/04:30am 24.1 25.3 20.0 78 2.6 ESE 13 19 7 10 1013.2 1013.1 0.0
03/04:00am 24.6 26.0 20.3 77 2.8 SE 13 22 7 12 1013.2 1013.1 0.0
03/03:30am 24.5 27.9 22.0 86 1.7 SE 7 11 4 6 1013.4 1013.3 0.0
03/03:00am 24.1 27.6 21.8 87 1.5 SE 6 11 3 6 1013.7 1013.6 0.0
03/02:30am 23.7 27.0 21.4 87 1.5 ESE 6 6 3 3 1014.0 1013.9 0.0
03/02:00am 23.7 26.9 21.2 86 1.6 E 6 7 3 4 1013.9 1013.8 0.0
03/01:30am 23.8 26.9 21.1 85 1.8 E 6 9 3 5 1014.1 1014.0 0.0
03/01:00am 23.7 26.7 20.8 84 1.9 E 6 7 3 4 1013.9 1013.8 0.0
03/12:30am 24.0 26.9 20.7 82 2.2 E 6 7 3 4 1013.9 1013.8 0.0
03/12:00am 24.4 26.6 20.5 79 2.5 E 9 13 5 7 1014.0 1013.9 0.0
 
Date/Time
CST
Temp
°C
App
Temp
°C
Dew
Point
°C
Rel
Hum
%
Delta-T
°C
Wind Press
QNH
hPa
Press
MSL
hPa
Rain since
9am
mm
Dir  Spd
km/h
Gust
km/h
Spd
kts
Gust
kts
02/11:30pm 24.8 26.3 20.5 77 2.8 ENE 13 19 7 10 1014.1 1014.0 0.0
02/11:00pm 25.0 26.0 20.3 75 3.1 ENE 15 22 8 12 1014.1 1014.0 0.0
02/10:30pm 25.0 26.1 20.5 76 2.9 ENE 15 22 8 12 1013.8 1013.7 0.0
02/10:00pm 25.0 26.0 20.3 75 3.1 ENE 15 20 8 11 1013.6 1013.5 0.0
02/09:30pm 25.0 25.8 19.8 73 3.4 ENE 15 20 8 11 1013.2 1013.1 0.0
02/09:00pm 25.0 26.2 19.8 73 3.4 ENE 13 24 7 13 1012.8 1012.7 0.0
02/08:30pm 25.1 25.4 19.7 72 3.5 ENE 17 24 9 13 1012.7 1012.6 0.0
02/08:00pm 25.3 25.5 19.4 70 3.8 E 17 22 9 12 1012.5 1012.4 0.0
02/07:30pm 25.2 26.0 19.1 69 3.9 E 13 20 7 11 1012.2 1012.1 0.0
02/07:00pm 25.1 26.0 19.2 70 3.8 E 13 20 7 11 1011.9 1011.8 0.0
02/06:30pm 25.4 25.6 19.3 69 3.9 ENE 17 26 9 14 1011.7 1011.6 0.0
02/06:00pm 25.9 25.3 18.8 65 4.5 ENE 20 30 11 16 1011.4 1011.3 0.0
02/05:30pm 26.6 25.5 19.5 65 4.6 ENE 24 39 13 21 1011.0 1010.9 0.0
02/05:00pm 27.0 25.6 19.6 64 4.8 ENE 26 37 14 20 1010.9 1010.8 0.0
02/04:30pm 27.9 26.2 18.0 55 6.3 E 24 37 13 20 1010.6 1010.5 0.0
02/04:00pm 29.1 27.8 17.3 49 7.4 ENE 20 32 11 17 1010.4 1010.3 0.0
02/03:30pm 29.2 27.2 16.4 46 8.0 ENE 22 37 12 20 1010.5 1010.4 0.0
02/03:00pm 29.8 27.9 15.1 40 9.0 ENE 19 32 10 17 1010.7 1010.6 0.0
02/02:30pm 29.4 27.3 15.1 41 8.7 ENE 20 30 11 16 1011.0 1010.9 0.0
02/02:00pm 29.7 27.7 15.4 42 8.8 E 20 30 11 16 1011.4 1011.3 0.0
02/01:30pm 29.5 26.9 13.7 38 9.5 E 20 32 11 17 1011.9 1011.8 0.0
02/01:00pm 30.3 28.2 14.8 39 9.5 E 19 28 10 15 1012.1 1012.0 0.0
02/12:30pm 30.1 28.0 14.6 39 9.4 ESE 19 28 10 15 1012.5 1012.4 0.0
02/12:00pm 29.3 26.9 14.3 40 9.1 E 20 33 11 18 1012.6 1012.5 0.0
02/11:30am 29.3 27.4 15.8 44 8.3 ESE 20 30 11 16 1013.0 1012.9 0.0
02/11:00am 28.5 27.9 18.9 56 6.2 ESE 20 28 11 15 1013.1 1013.0 0.0

Other formats

Comma delimited format used in spreadsheet applications
http://www.bom.gov.au/fwo/IDD60801/IDD60801.94108.axf

JavaScript Object Notation format (JSON) in row-major order
http://www.bom.gov.au/fwo/IDD60801/IDD60801.94108.json

Data quality

Most of these data are generated automatically and are frequently updated. Quality checks on data are not normally performed. It is possible for incorrect values to appear. Refer to information at About Latest Weather Observations and please check the disclaimer before using these data.